Time;durP1;ratioP1;P1;durP2;ratioP2;P2;SDS_P1;SDS_P2;PMS_P1;PMS_P2;Temp;Humidity;BMP_temperature;BMP_pressure;BME280_temperature;BME280_humidity;BME280_pressure;Samples;Min_cycle;Max_cycle;Signal;HPM_P1;HPM_P2
2021/09/02 00:00:46;;;;;;;3.70;2.53;;;;;;;26.23;42.75;95352.13;5065181;28;20033;-74
2021/09/02 00:03:11;;;;;;;4.18;2.60;;;;;;;26.24;42.65;95348.13;5065712;28;20153;-75
2021/09/02 00:05:37;;;;;;;3.83;2.70;;;;;;;26.24;42.53;95353.63;5068605;28;20039;-75
2021/09/02 00:08:03;;;;;;;4.13;2.60;;;;;;;26.25;42.90;95354.34;5068135;28;20054;-74
2021/09/02 00:10:28;;;;;;;4.03;2.85;;;;;;;26.22;43.03;95361.63;5068651;28;20024;-74
2021/09/02 00:12:53;;;;;;;4.95;2.78;;;;;;;26.23;42.40;95362.34;5045589;28;20106;-74
2021/09/02 00:15:19;;;;;;;3.85;2.33;;;;;;;26.22;42.92;95350.66;5068500;28;20021;-74
2021/09/02 00:17:44;;;;;;;4.78;2.70;;;;;;;26.22;42.82;95350.66;5063435;28;20058;-74
2021/09/02 00:20:11;;;;;;;4.05;2.97;;;;;;;26.22;42.63;95345.19;5048571;28;20048;-75
2021/09/02 00:22:36;;;;;;;3.80;2.72;;;;;;;26.22;42.39;95350.66;5046869;28;20039;-74
2021/09/02 00:25:02;;;;;;;3.58;2.35;;;;;;;26.23;42.61;95349.38;5048524;28;20037;-75
2021/09/02 00:27:28;;;;;;;3.95;2.47;;;;;;;26.22;42.68;95350.66;5047547;28;20028;-74
2021/09/02 00:29:53;;;;;;;3.33;2.40;;;;;;;26.23;42.83;95352.13;5030553;28;20036;-74
2021/09/02 00:32:19;;;;;;;3.90;2.55;;;;;;;26.23;43.23;95343.19;5048451;28;20036;-74
2021/09/02 00:34:45;;;;;;;4.05;2.60;;;;;;;26.23;43.14;95351.41;5047778;28;20494;-73
2021/09/02 00:37:10;;;;;;;4.25;2.70;;;;;;;26.19;43.04;95350.94;5048464;28;20071;-76
2021/09/02 00:39:35;;;;;;;3.80;2.60;;;;;;;26.21;42.98;95354.66;5047362;28;20029;-75
2021/09/02 00:42:01;;;;;;;4.63;2.50;;;;;;;26.21;42.57;95349.19;5047663;28;20033;-74
2021/09/02 00:44:33;;;;;;;4.57;2.50;;;;;;;26.21;42.94;95348.44;5047383;28;20033;-74
2021/09/02 00:47:01;;;;;;;3.80;2.45;;;;;;;26.21;42.69;95351.19;5029735;28;20028;-74
2021/09/02 00:49:27;;;;;;;3.72;2.45;;;;;;;26.21;42.59;95349.19;5047219;28;20045;-74
2021/09/02 00:51:52;;;;;;;3.85;2.78;;;;;;;26.20;43.18;95358.66;5047680;28;20112;-76
2021/09/02 00:54:18;;;;;;;4.05;2.72;;;;;;;26.20;42.68;95347.69;5029179;28;20087;-74
2021/09/02 00:56:43;;;;;;;4.80;2.90;;;;;;;26.21;42.46;95342.97;5047509;28;20629;-73
2021/09/02 00:59:08;;;;;;;4.75;3.00;;;;;;;26.18;42.87;95344.75;5048021;28;20029;-74
2021/09/02 01:01:34;;;;;;;4.10;2.75;;;;;;;26.19;42.63;95357.19;5033647;28;20486;-73
2021/09/02 01:04:03;;;;;;;4.43;2.65;;;;;;;26.19;43.03;95351.72;5048325;28;20091;-74
2021/09/02 01:06:28;;;;;;;4.32;2.60;;;;;;;26.15;42.74;95340.31;5030249;28;20024;-74
2021/09/02 01:08:53;;;;;;;3.17;2.10;;;;;;;26.19;42.74;95346.22;5029505;28;20031;-73
2021/09/02 01:11:19;;;;;;;4.38;2.80;;;;;;;26.20;42.66;95346.97;5012913;28;20033;-74
2021/09/02 01:13:44;;;;;;;3.63;2.50;;;;;;;26.18;42.63;95333.78;5047028;28;20060;-73
2021/09/02 01:16:10;;;;;;;4.00;2.50;;;;;;;26.18;42.59;95339.28;5046547;28;20017;-76
2021/09/02 01:18:35;;;;;;;3.35;2.50;;;;;;;26.15;42.45;95329.34;5047382;28;20028;-74
2021/09/02 01:21:01;;;;;;;3.78;2.40;;;;;;;26.18;42.53;95339.28;5046550;28;20528;-74
2021/09/02 01:23:26;;;;;;;4.75;2.67;;;;;;;26.16;42.70;95330.84;5047259;28;20376;-74
2021/09/02 01:25:52;;;;;;;4.70;2.92;;;;;;;26.14;42.95;95333.34;5046875;28;20029;-74
2021/09/02 01:28:17;;;;;;;3.70;2.40;;;;;;;26.17;42.84;95326.81;5046310;28;20029;-73
2021/09/02 01:30:43;;;;;;;3.38;2.20;;;;;;;26.16;43.25;95335.56;5047244;28;20025;-74
2021/09/02 01:33:09;;;;;;;3.85;2.60;;;;;;;26.16;43.23;95332.81;5046481;28;20424;-74
2021/09/02 01:35:35;;;;;;;3.45;2.13;;;;;;;26.10;42.87;95332.91;5012903;28;20028;-74
2021/09/02 01:38:02;;;;;;;5.22;2.60;;;;;;;26.15;43.26;95334.81;5012440;28;20786;-76
2021/09/02 01:40:29;;;;;;;4.13;2.70;;;;;;;26.16;43.01;95341.78;5027310;28;20024;-74
2021/09/02 01:42:54;;;;;;;3.88;2.50;;;;;;;26.15;43.03;95334.09;5046534;28;20033;-73
2021/09/02 01:45:20;;;;;;;3.83;2.60;;;;;;;26.13;43.27;95331.13;5046069;28;20050;-74
2021/09/02 01:47:45;;;;;;;3.80;2.60;;;;;;;26.15;43.06;95334.09;5046474;28;20496;-74
2021/09/02 01:50:21;;;;;;;3.75;2.63;;;;;;;26.10;42.54;95327.44;5046933;28;20025;-74
2021/09/02 01:52:46;;;;;;;4.00;2.70;;;;;;;26.15;43.11;95339.56;5029304;28;20043;-76
2021/09/02 01:55:12;;;;;;;3.70;2.25;;;;;;;26.14;42.79;95327.88;5027846;28;20045;-75
2021/09/02 01:57:40;;;;;;;3.75;2.70;;;;;;;26.14;42.85;95327.88;5048891;28;20044;-73
2021/09/02 02:00:06;;;;;;;4.05;2.33;;;;;;;26.14;42.71;95322.38;5065699;28;20104;-74
2021/09/02 02:02:32;;;;;;;3.58;2.47;;;;;;;26.09;42.76;95315.00;5066378;28;20028;-74
2021/09/02 02:04:57;;;;;;;3.70;2.35;;;;;;;26.14;42.90;95327.13;5030737;28;20438;-74
2021/09/02 02:07:23;;;;;;;3.60;2.22;;;;;;;26.15;43.30;95331.38;5045870;28;20039;-74
2021/09/02 02:09:48;;;;;;;3.30;2.40;;;;;;;26.12;43.00;95329.66;5045472;28;20790;-74
2021/09/02 02:12:14;;;;;;;3.22;2.35;;;;;;;26.06;43.08;95316.03;5046211;28;20041;-74
2021/09/02 02:14:39;;;;;;;3.53;2.50;;;;;;;26.13;42.97;95326.41;5027079;28;20601;-75
2021/09/02 02:17:05;;;;;;;4.18;2.72;;;;;;;26.14;43.11;95327.88;5046457;28;20036;-75
2021/09/02 02:19:30;;;;;;;3.72;2.60;;;;;;;26.12;42.81;95324.91;5026915;28;20031;-75
2021/09/02 02:21:56;;;;;;;3.50;2.15;;;;;;;26.11;42.78;95323.44;5046318;28;20027;-74
2021/09/02 02:24:21;;;;;;;3.70;2.40;;;;;;;26.12;42.59;95319.44;5044769;28;20465;-74
2021/09/02 02:26:47;;;;;;;3.35;2.22;;;;;;;26.12;42.61;95319.44;5045697;28;20013;-74
2021/09/02 02:29:12;;;;;;;3.28;2.30;;;;;;;26.13;43.28;95320.94;5026757;28;20056;-74
2021/09/02 02:31:37;;;;;;;4.30;2.80;;;;;;;26.11;43.10;95323.44;5045688;28;20399;-74
2021/09/02 02:34:03;;;;;;;3.58;2.25;;;;;;;26.11;43.09;95323.44;5045215;28;20025;-74
2021/09/02 02:36:29;;;;;;;4.15;2.80;;;;;;;26.11;42.75;95320.69;5046189;28;20509;-74
2021/09/02 02:38:54;;;;;;;3.22;2.38;;;;;;;26.10;43.01;95326.69;5052104;28;20483;-74
2021/09/02 02:41:19;;;;;;;3.47;2.13;;;;;;;26.10;43.21;95327.44;5047860;28;20808;-75
2021/09/02 02:43:45;;;;;;;3.65;2.35;;;;;;;26.11;42.96;95333.66;5065238;28;20405;-74
2021/09/02 02:46:10;;;;;;;4.60;2.58;;;;;;;26.08;43.21;95329.22;5065747;28;20017;-75
2021/09/02 02:48:36;;;;;;;4.05;2.38;;;;;;;26.08;42.86;95338.16;5054055;28;20036;-74
2021/09/02 02:51:01;;;;;;;4.13;2.50;;;;;;;26.08;42.67;95335.41;5045563;28;20032;-74
2021/09/02 02:53:27;;;;;;;3.13;2.20;;;;;;;26.09;42.67;95331.44;5055056;28;20040;-75
2021/09/02 02:55:52;;;;;;;3.72;2.60;;;;;;;26.09;43.13;95331.44;5065630;28;20054;-75
2021/09/02 02:58:18;;;;;;;3.38;2.38;;;;;;;26.09;42.93;95342.38;5064736;28;20020;-75
2021/09/02 03:00:43;;;;;;;3.28;2.28;;;;;;;26.08;42.87;95334.69;5047058;28;20028;-75
2021/09/02 03:03:09;;;;;;;3.00;2.08;;;;;;;26.10;42.68;95337.63;5047593;28;20029;-75
2021/09/02 03:05:34;;;;;;;4.35;2.60;;;;;;;26.10;43.14;95343.09;5063017;28;20017;-73
2021/09/02 03:08:00;;;;;;;3.20;2.20;;;;;;;26.08;42.86;95340.91;5043013;28;20032;-75
2021/09/02 03:10:25;;;;;;;3.40;2.55;;;;;;;26.10;42.63;95338.41;5064743;28;20033;-75
2021/09/02 03:12:51;;;;;;;4.07;2.67;;;;;;;26.11;42.81;95333.66;5064846;28;20059;-75
2021/09/02 03:15:16;;;;;;;2.97;2.25;;;;;;;26.11;43.31;95333.66;5065035;28;20024;-75
2021/09/02 03:17:42;;;;;;;3.75;2.40;;;;;;;26.09;43.13;95347.84;5065225;28;20498;-75
2021/09/02 03:20:07;;;;;;;5.10;2.50;;;;;;;26.10;43.15;95343.88;5055495;28;20052;-74
2021/09/02 03:22:33;;;;;;;3.88;2.65;;;;;;;26.08;43.28;95343.63;5044604;28;20040;-75
2021/09/02 03:24:58;;;;;;;4.20;2.47;;;;;;;26.08;42.63;95340.91;5044255;28;20023;-74
2021/09/02 03:27:24;;;;;;;4.68;2.65;;;;;;;26.10;43.21;95345.84;5044534;28;20116;-75
2021/09/02 03:29:49;;;;;;;3.22;2.20;;;;;;;26.05;43.01;95331.00;5026999;28;20029;-74
2021/09/02 03:32:15;;;;;;;3.47;2.30;;;;;;;26.09;43.32;95353.34;5027161;28;20021;-73
2021/09/02 03:34:40;;;;;;;3.17;2.25;;;;;;;26.10;42.88;95349.34;5044906;28;20036;-74
2021/09/02 03:37:05;;;;;;;3.35;2.38;;;;;;;26.09;43.09;95347.84;5044589;28;20017;-74
2021/09/02 03:39:31;;;;;;;3.65;2.58;;;;;;;26.09;43.31;95352.59;5044227;28;20486;-74
2021/09/02 03:41:56;;;;;;;4.07;2.58;;;;;;;26.08;43.21;95338.16;5044983;28;20033;-75
2021/09/02 03:44:22;;;;;;;4.07;2.40;;;;;;;26.09;43.02;95347.84;5056214;28;20028;-74
2021/09/02 03:46:47;;;;;;;4.45;2.13;;;;;;;26.09;42.87;95353.34;5065378;28;20484;-73
2021/09/02 03:49:13;;;;;;;2.95;2.22;;;;;;;26.08;42.93;95351.84;5046046;28;20025;-74
2021/09/02 03:51:38;;;;;;;3.17;2.20;;;;;;;26.07;43.18;95350.38;5064913;28;20032;-74
2021/09/02 03:54:03;;;;;;;4.00;2.40;;;;;;;26.09;43.23;95347.84;5063687;28;20029;-74
2021/09/02 03:56:29;;;;;;;2.97;2.38;;;;;;;26.09;42.77;95358.81;5064748;28;20020;-74
2021/09/02 03:58:54;;;;;;;3.60;2.50;;;;;;;26.10;42.91;95354.81;5064518;28;20590;-74
2021/09/02 04:01:22;;;;;;;2.95;2.10;;;;;;;26.08;42.69;95351.84;5053844;28;20356;-75
2021/09/02 04:03:48;;;;;;;5.03;2.80;;;;;;;26.09;42.83;95358.81;5042946;28;20051;-74
2021/09/02 04:06:13;;;;;;;4.20;2.53;;;;;;;26.08;42.71;95357.31;5044411;28;20017;-75
2021/09/02 04:08:39;;;;;;;4.40;2.50;;;;;;;26.08;43.28;95362.78;5043847;28;20025;-74
2021/09/02 04:11:04;;;;;;;4.75;2.40;;;;;;;26.10;42.84;95360.28;5044810;28;20135;-74
2021/09/02 04:13:30;;;;;;;5.90;2.63;;;;;;;26.10;42.82;95359.53;5054262;28;20430;-75
2021/09/02 04:15:55;;;;;;;7.43;2.33;;;;;;;26.08;42.81;95365.53;5064600;28;20039;-74
2021/09/02 04:18:21;;;;;;;5.18;2.58;;;;;;;26.10;43.30;95365.00;5064132;28;20032;-74
2021/09/02 04:20:46;;;;;;;4.50;2.40;;;;;;;26.11;42.92;95366.50;5064757;28;20055;-74
2021/09/02 04:23:12;;;;;;;5.30;2.20;;;;;;;26.09;42.89;95367.03;5037647;28;20029;-75
2021/09/02 04:25:37;;;;;;;6.45;2.75;;;;;;;26.11;43.09;95372.72;5044494;28;20025;-74
2021/09/02 04:28:03;;;;;;;4.85;2.20;;;;;;;26.11;42.62;95372.72;5044022;28;20079;-74
2021/09/02 04:30:28;;;;;;;3.58;2.60;;;;;;;26.11;43.17;95361.03;5044319;28;20403;-74
2021/09/02 04:32:54;;;;;;;4.43;2.40;;;;;;;26.09;42.99;95369.75;5044809;28;20020;-74
2021/09/02 04:35:19;;;;;;;4.97;2.70;;;;;;;26.11;42.92;95371.97;5044356;28;20424;-74
2021/09/02 04:37:46;;;;;;;3.83;2.75;;;;;;;26.11;42.83;95383.66;5044489;28;20784;-74
2021/09/02 04:40:12;;;;;;;5.65;2.30;;;;;;;26.11;43.14;95388.41;5061111;28;20028;-74
2021/09/02 04:42:37;;;;;;;5.47;2.70;;;;;;;26.12;42.79;95385.16;5064208;28;20449;-74
2021/09/02 04:45:03;;;;;;;4.50;2.35;;;;;;;26.12;42.78;95387.88;5063830;28;20021;-74
2021/09/02 04:47:29;;;;;;;6.85;2.30;;;;;;;26.11;43.07;95394.59;5064168;28;20017;-75
2021/09/02 04:49:55;;;;;;;5.47;2.33;;;;;;;26.13;42.66;95392.09;5045240;28;20036;-75
2021/09/02 04:52:20;;;;;;;6.70;2.75;;;;;;;26.11;42.53;95383.66;5028872;28;20883;-74
2021/09/02 04:54:46;;;;;;;4.45;2.80;;;;;;;26.11;42.84;95389.13;5046940;28;20052;-74
2021/09/02 04:57:11;;;;;;;5.25;2.67;;;;;;;26.09;42.66;95385.44;5047125;28;20419;-74
2021/09/02 04:59:37;;;;;;;3.83;2.22;;;;;;;26.12;43.30;95396.09;5047310;28;20584;-75
2021/09/02 05:02:02;;;;;;;4.38;2.78;;;;;;;26.15;42.78;95397.78;5047918;28;20036;-75
2021/09/02 05:04:28;;;;;;;4.13;2.63;;;;;;;26.14;42.74;95404.53;5047325;28;20470;-74
2021/09/02 05:06:53;;;;;;;5.20;2.40;;;;;;;26.12;42.71;95396.09;5047589;28;20041;-74
2021/09/02 05:09:18;;;;;;;5.38;2.70;;;;;;;26.16;42.48;95402.03;5046150;28;20025;-74
2021/09/02 05:11:44;;;;;;;5.90;2.50;;;;;;;26.15;42.45;95395.06;5047129;28;20130;-74
2021/09/02 05:14:09;;;;;;;7.05;2.90;;;;;;;26.10;43.20;95393.16;5046664;28;20645;-74
2021/09/02 05:16:35;;;;;;;5.28;2.55;;;;;;;26.16;42.96;95412.97;5029405;28;20037;-74
2021/09/02 05:19:00;;;;;;;5.03;2.80;;;;;;;26.17;42.99;95413.72;5029441;28;20086;-74
2021/09/02 05:21:26;;;;;;;4.45;2.40;;;;;;;26.18;42.92;95415.94;5047642;28;20025;-75
2021/09/02 05:23:51;;;;;;;4.35;2.50;;;;;;;26.19;42.76;95411.19;5052891;28;20507;-74
2021/09/02 05:26:17;;;;;;;4.78;2.47;;;;;;;26.18;42.59;95407.72;5028764;28;20021;-74
2021/09/02 05:28:42;;;;;;;4.20;2.58;;;;;;;26.21;42.76;95409.41;5029849;28;20040;-74
2021/09/02 05:31:08;;;;;;;8.20;2.97;;;;;;;26.20;42.67;95407.94;5067113;28;20031;-74
2021/09/02 05:33:33;;;;;;;5.78;2.60;;;;;;;26.21;42.53;95403.94;5067215;28;20032;-74
2021/09/02 05:35:59;;;;;;;5.60;2.70;;;;;;;26.22;42.69;95405.44;5066982;28;20071;-74
2021/09/02 05:38:24;;;;;;;4.50;2.58;;;;;;;26.25;42.48;95409.09;5066069;28;20283;-74
2021/09/02 05:40:49;;;;;;;3.83;2.30;;;;;;;26.27;42.56;95417.56;5067006;28;20020;-74
2021/09/02 05:43:15;;;;;;;4.75;2.42;;;;;;;26.23;42.88;95417.84;5031879;28;20403;-75
2021/09/02 05:45:40;;;;;;;5.63;2.28;;;;;;;26.25;42.30;95409.88;5066906;28;20020;-75
2021/09/02 05:48:06;;;;;;;3.95;2.67;;;;;;;26.26;42.79;95411.31;5043812;28;20518;-75
2021/09/02 05:50:31;;;;;;;3.97;2.25;;;;;;;26.27;42.69;95412.81;5046169;28;20033;-75
2021/09/02 05:52:57;;;;;;;5.07;2.20;;;;;;;26.27;42.28;95412.81;5051389;28;20032;-74
2021/09/02 05:55:22;;;;;;;6.53;2.53;;;;;;;26.27;42.43;95412.81;5047793;28;20024;-74
2021/09/02 05:57:48;;;;;;;5.97;3.47;;;;;;;26.27;42.47;95415.56;5065902;28;20020;-74
2021/09/02 06:00:14;;;;;;;5.30;2.70;;;;;;;26.28;42.65;95420.53;5066030;28;20427;-75
2021/09/02 06:02:39;;;;;;;4.97;2.45;;;;;;;26.29;42.90;95416.56;5066470;28;20506;-75
2021/09/02 06:05:06;;;;;;;4.60;2.45;;;;;;;26.29;42.39;95415.78;5047470;28;20108;-75
2021/09/02 06:07:31;;;;;;;6.18;2.97;;;;;;;26.29;42.67;95415.78;5028338;28;20033;-75
2021/09/02 06:09:57;;;;;;;4.30;2.63;;;;;;;26.29;42.51;95404.84;5046189;28;20033;-75
2021/09/02 06:12:22;;;;;;;5.82;2.67;;;;;;;26.32;42.32;95410.03;5045836;28;20049;-75
2021/09/02 06:14:48;;;;;;;4.80;2.42;;;;;;;26.26;42.62;95411.31;5046176;28;20033;-75
2021/09/02 06:17:13;;;;;;;4.65;2.10;;;;;;;26.34;42.79;95417.75;5046180;28;20035;-75
2021/09/02 06:19:39;;;;;;;4.93;2.53;;;;;;;26.35;42.35;95427.41;5063906;28;20028;-74
2021/09/02 06:22:04;;;;;;;4.47;2.40;;;;;;;26.35;42.63;95424.69;5065572;28;20470;-74
2021/09/02 06:24:30;;;;;;;4.97;2.47;;;;;;;26.34;42.35;95423.94;5046620;28;20028;-74
2021/09/02 06:26:56;;;;;;;5.13;2.65;;;;;;;26.33;42.42;95413.50;5045636;28;20017;-74
2021/09/02 06:29:22;;;;;;;5.40;2.40;;;;;;;26.38;42.58;95424.41;5044268;28;20036;-74
2021/09/02 06:31:47;;;;;;;3.47;2.40;;;;;;;26.38;42.58;95420.91;5066145;28;20032;-74
2021/09/02 06:34:13;;;;;;;4.72;2.42;;;;;;;26.39;42.25;95414.19;5064687;28;20036;-74
2021/09/02 06:36:38;;;;;;;5.18;2.60;;;;;;;26.40;42.22;95432.09;5065572;28;20028;-74
2021/09/02 06:39:03;;;;;;;5.45;2.67;;;;;;;26.41;42.49;95417.13;5064129;28;20028;-75
2021/09/02 06:41:29;;;;;;;3.88;2.78;;;;;;;26.42;42.36;95429.56;5065763;28;20028;-74
2021/09/02 06:43:54;;;;;;;4.70;2.53;;;;;;;26.43;42.62;95428.31;5064821;28;20025;-75
2021/09/02 06:46:20;;;;;;;3.50;2.33;;;;;;;26.41;42.12;95433.56;5065594;28;20032;-75
2021/09/02 06:48:45;;;;;;;3.75;2.17;;;;;;;26.42;42.45;95429.56;5049777;28;20033;-74
2021/09/02 06:51:11;;;;;;;5.15;2.67;;;;;;;26.43;42.46;95425.59;5027733;28;20408;-75
2021/09/02 06:53:36;;;;;;;4.05;2.70;;;;;;;26.43;42.64;95420.09;5025795;28;20036;-75
2021/09/02 06:56:02;;;;;;;3.95;2.58;;;;;;;26.42;42.80;95418.63;5045584;28;20026;-75
2021/09/02 06:58:27;;;;;;;4.07;2.47;;;;;;;26.45;42.16;95426.53;5026635;28;20612;-75
2021/09/02 07:00:53;;;;;;;4.88;2.28;;;;;;;26.45;42.60;95423.06;5033632;28;20683;-75
2021/09/02 07:03:18;;;;;;;4.32;2.45;;;;;;;26.42;42.51;95413.13;5047635;28;20141;-75
2021/09/02 07:05:43;;;;;;;4.82;2.55;;;;;;;26.45;42.36;95423.06;5064402;28;20027;-75
2021/09/02 07:08:09;;;;;;;3.65;2.40;;;;;;;26.44;42.17;95419.59;5047559;28;20032;-75
2021/09/02 07:10:34;;;;;;;3.88;2.42;;;;;;;26.46;42.20;95416.31;5044696;28;20024;-75
2021/09/02 07:13:00;;;;;;;5.55;2.67;;;;;;;26.46;42.20;95413.59;5044012;28;20565;-75
2021/09/02 07:15:25;;;;;;;4.13;2.47;;;;;;;26.47;42.58;95415.03;5037260;28;20457;-75
2021/09/02 07:17:51;;;;;;;4.00;2.60;;;;;;;26.48;42.33;95416.53;5065157;28;20415;-75
2021/09/02 07:20:16;;;;;;;4.90;2.50;;;;;;;26.47;42.08;95426.00;5064682;28;20021;-75
2021/09/02 07:22:41;;;;;;;4.53;2.50;;;;;;;26.48;42.41;95416.53;5042259;28;20106;-75
2021/09/02 07:25:07;;;;;;;4.93;2.30;;;;;;;26.49;42.05;95412.56;5045240;28;20029;-75
2021/09/02 07:27:33;;;;;;;5.13;2.55;;;;;;;26.49;42.19;95423.50;5043833;28;20035;-75
2021/09/02 07:29:58;;;;;;;4.55;2.65;;;;;;;26.50;42.49;95420.25;5027177;28;20037;-75
2021/09/02 07:32:26;;;;;;;4.97;2.45;;;;;;;26.50;42.24;95408.53;5044427;28;20194;-75
2021/09/02 07:34:51;;;;;;;4.97;2.85;;;;;;;26.47;42.45;95415.03;5044639;28;20037;-75
2021/09/02 07:37:17;;;;;;;5.22;2.53;;;;;;;26.50;42.27;95419.50;5044264;28;20040;-75
2021/09/02 07:39:42;;;;;;;4.97;2.22;;;;;;;26.51;42.17;95426.44;5054805;28;20041;-75
2021/09/02 07:42:08;;;;;;;3.40;2.28;;;;;;;26.53;42.28;95434.88;5063989;28;20479;-75
2021/09/02 07:44:33;;;;;;;4.13;2.78;;;;;;;26.51;42.59;95426.44;5043734;28;20118;-75
2021/09/02 07:46:59;;;;;;;5.57;2.42;;;;;;;26.53;42.21;95434.88;5044326;28;20025;-74
2021/09/02 07:49:24;;;;;;;5.53;3.13;;;;;;;26.54;41.91;95425.41;5061629;28;20047;-75
2021/09/02 07:51:50;;;;;;;3.55;1.92;;;;;;;26.51;42.61;95427.19;5064630;28;20047;-75
2021/09/02 07:54:15;;;;;;;4.00;2.70;;;;;;;26.54;42.30;95419.94;5048511;28;20036;-75
2021/09/02 07:56:41;;;;;;;5.45;2.38;;;;;;;26.54;42.00;95441.84;5026543;28;20024;-75
2021/09/02 07:59:06;;;;;;;4.35;2.65;;;;;;;26.55;42.28;95437.88;5043992;28;20025;-75
2021/09/02 08:01:32;;;;;;;4.10;2.55;;;;;;;26.54;41.92;95436.38;5045000;28;20029;-75
2021/09/02 08:03:57;;;;;;;4.10;2.38;;;;;;;26.57;41.83;95435.34;5052995;28;20138;-75
2021/09/02 08:06:22;;;;;;;4.53;2.40;;;;;;;26.57;42.08;95429.84;5064880;28;20032;-75
2021/09/02 08:08:48;;;;;;;4.10;2.55;;;;;;;26.59;42.02;95427.31;5056432;28;20040;-75
2021/09/02 08:11:14;;;;;;;5.53;2.75;;;;;;;26.59;41.97;95422.59;5044439;28;20029;-75
2021/09/02 08:13:39;;;;;;;3.83;2.15;;;;;;;26.59;42.14;95438.28;5025963;28;20052;-75
2021/09/02 08:16:05;;;;;;;4.22;2.70;;;;;;;26.61;41.71;95419.34;5026498;28;20040;-75
2021/09/02 08:18:30;;;;;;;5.07;2.55;;;;;;;26.61;41.89;95431.03;5043151;28;20178;-75
2021/09/02 08:20:56;;;;;;;3.85;2.50;;;;;;;26.64;41.54;95418.31;5044670;28;20091;-75
2021/09/02 08:23:21;;;;;;;4.32;2.63;;;;;;;26.65;42.10;95425.25;5043177;28;20036;-75
2021/09/02 08:25:47;;;;;;;3.80;2.45;;;;;;;26.67;41.89;95428.22;5048570;28;20114;-75
2021/09/02 08:28:14;;;;;;;3.42;2.38;;;;;;;26.67;42.02;95423.47;5047524;28;20086;-75
2021/09/02 08:30:40;;;;;;;3.97;2.47;;;;;;;26.70;42.07;95421.69;5030016;28;20060;-75
2021/09/02 08:33:05;;;;;;;3.63;2.30;;;;;;;26.72;41.87;95430.13;5048318;28;20032;-75
2021/09/02 08:35:31;;;;;;;4.13;2.35;;;;;;;26.73;41.64;95437.09;5046738;28;20028;-75
2021/09/02 08:37:59;;;;;;;4.45;2.75;;;;;;;26.75;41.87;95434.56;5030381;28;20028;-75
2021/09/02 08:40:28;;;;;;;3.97;2.35;;;;;;;26.72;41.76;95435.59;5046861;28;20040;-75
2021/09/02 08:42:56;;;;;;;4.07;2.72;;;;;;;26.76;41.79;95436.06;5012969;28;20041;-75
2021/09/02 08:45:22;;;;;;;4.63;2.45;;;;;;;26.76;41.73;95430.56;5048025;28;20020;-75
2021/09/02 08:47:48;;;;;;;4.70;2.60;;;;;;;26.77;41.52;95416.34;5047179;28;20017;-75
2021/09/02 08:50:14;;;;;;;3.45;2.40;;;;;;;26.73;41.78;95415.19;5047318;28;20115;-75
2021/09/02 08:52:40;;;;;;;3.55;2.20;;;;;;;26.79;41.62;95403.59;5013473;28;20130;-75
2021/09/02 08:55:06;;;;;;;4.13;2.35;;;;;;;26.79;41.76;95417.28;5046732;28;20064;-75
2021/09/02 08:57:31;;;;;;;3.67;2.28;;;;;;;26.80;41.66;95427.00;5047352;28;20028;-75
2021/09/02 08:59:58;;;;;;;3.20;2.40;;;;;;;26.78;41.79;95407.59;5030751;28;20482;-75
2021/09/02 09:02:27;;;;;;;4.50;2.50;;;;;;;26.78;41.89;95413.06;5066635;28;20043;-75
2021/09/02 09:05:07;;;;;;;5.15;3.10;;;;;;;26.81;41.75;95422.25;5066880;28;20047;-75
2021/09/02 09:07:44;;;;;;;4.03;2.38;;;;;;;26.80;41.74;95409.81;5066451;28;20664;-75
2021/09/02 09:10:18;;;;;;;5.45;2.70;;;;;;;26.79;41.84;95413.81;5029415;28;20587;-75
2021/09/02 09:12:51;;;;;;;3.90;2.60;;;;;;;26.82;41.57;95413.50;5050560;28;20044;-75
2021/09/02 09:15:17;;;;;;;4.32;2.20;;;;;;;26.83;41.75;95415.00;5067371;28;20056;-75
2021/09/02 09:17:42;;;;;;;4.00;2.30;;;;;;;26.83;41.98;95415.00;5066822;28;20525;-74
2021/09/02 09:20:08;;;;;;;4.68;2.40;;;;;;;26.83;41.75;95409.50;5067502;28;20043;-75
2021/09/02 09:22:34;;;;;;;3.50;2.30;;;;;;;26.85;41.75;95401.50;5054453;28;20029;-75
2021/09/02 09:25:04;;;;;;;4.55;2.40;;;;;;;26.86;41.40;95413.94;5047496;28;20028;-75
2021/09/02 09:27:43;;;;;;;3.92;2.15;;;;;;;26.86;41.68;95413.94;5056290;28;20103;-76
2021/09/02 09:30:29;;;;;;;3.30;2.28;;;;;;;26.88;41.37;95400.47;5067738;28;20558;-74
2021/09/02 09:32:58;;;;;;;3.50;2.20;;;;;;;26.89;41.40;95401.22;5058156;28;20102;-76
2021/09/02 09:35:28;;;;;;;3.20;2.10;;;;;;;26.87;41.45;95404.44;5034864;28;20024;-75
2021/09/02 09:38:15;;;;;;;4.90;2.17;;;;;;;26.88;41.51;95400.47;5066701;28;20267;-75
2021/09/02 09:40:51;;;;;;;3.83;2.30;;;;;;;26.89;41.43;95401.22;5038397;28;20644;-75
2021/09/02 09:43:20;;;;;;;3.88;2.15;;;;;;;26.89;41.64;95391.00;5028969;28;20082;-75
2021/09/02 09:45:50;;;;;;;4.05;2.45;;;;;;;26.87;41.56;95388.00;5045162;28;20025;-75
2021/09/02 09:48:40;;;;;;;3.80;1.88;;;;;;;26.88;41.36;95400.47;5046768;28;20036;-75
2021/09/02 09:51:13;;;;;;;3.30;2.20;;;;;;;26.89;41.21;95391.00;5045722;28;20035;-74
2021/09/02 09:53:39;;;;;;;3.20;1.98;;;;;;;26.90;41.43;95380.78;5046876;28;20563;-75
2021/09/02 09:56:05;;;;;;;4.25;2.22;;;;;;;26.89;41.46;95396.50;5028172;28;20547;-75
2021/09/02 09:58:31;;;;;;;2.92;1.92;;;;;;;26.89;41.36;95396.50;5046005;28;20036;-75
2021/09/02 10:01:00;;;;;;;3.42;2.03;;;;;;;26.89;41.38;95396.50;5028166;28;20055;-74
2021/09/02 10:03:26;;;;;;;3.80;2.03;;;;;;;26.91;41.53;95388.47;5058072;28;20066;-75
2021/09/02 10:05:52;;;;;;;3.90;2.35;;;;;;;26.87;41.20;95388.00;5028694;28;20033;-75
2021/09/02 10:08:18;;;;;;;3.65;2.17;;;;;;;26.88;41.52;95389.50;5029025;28;20464;-75
2021/09/02 10:10:44;;;;;;;2.95;1.90;;;;;;;26.91;41.54;95396.69;5012722;28;20024;-75
2021/09/02 10:13:10;;;;;;;2.85;1.73;;;;;;;26.91;41.48;95388.47;5046339;28;20072;-75
2021/09/02 10:15:35;;;;;;;3.72;2.03;;;;;;;26.93;41.37;95391.41;5028965;28;20041;-75
2021/09/02 10:18:04;;;;;;;3.95;2.33;;;;;;;26.95;41.48;95399.88;5046811;28;20040;-74
2021/09/02 10:20:34;;;;;;;2.90;2.17;;;;;;;26.95;41.15;95388.91;5029320;28;20032;-75
2021/09/02 10:22:59;;;;;;;;;;;;;;;26.95;41.44;95399.88;5027501;28;20483;-75
2021/09/02 10:25:37;;;;;;;2.97;1.90;;;;;;;26.95;41.63;95388.91;5045860;28;19916;-74
2021/09/02 10:28:05;;;;;;;4.57;2.05;;;;;;;26.97;41.25;95405.56;5044609;28;20123;-74
2021/09/02 10:30:32;;;;;;;3.55;2.20;;;;;;;26.99;41.24;95394.81;5045666;28;20037;-74
2021/09/02 10:32:58;;;;;;;3.60;2.10;;;;;;;26.95;41.00;95383.44;5044499;28;20040;-75
2021/09/02 10:35:31;;;;;;;2.85;1.88;;;;;;;27.01;41.17;95397.78;5027595;28;20043;-73
2021/09/02 10:37:56;;;;;;;3.67;2.03;;;;;;;27.00;41.29;95382.59;5044690;28;20071;-75
2021/09/02 10:40:21;;;;;;;3.20;1.95;;;;;;;27.01;41.07;95386.81;5026894;28;20044;-74
2021/09/02 10:42:48;;;;;;;2.75;2.00;;;;;;;27.03;41.08;95383.56;5044316;28;20116;-75
2021/09/02 10:45:26;;;;;;;3.38;1.83;;;;;;;27.02;41.26;95385.53;5045402;28;20025;-74
2021/09/02 10:47:55;;;;;;;3.95;2.10;;;;;;;27.00;41.26;95385.34;5063183;28;20905;-74
2021/09/02 10:50:22;;;;;;;4.07;1.83;;;;;;;26.97;41.30;95386.38;5065607;28;20106;-75
2021/09/02 10:52:48;;;;;;;4.25;1.85;;;;;;;27.00;41.13;95390.81;5042958;28;20032;-75
2021/09/02 10:55:26;;;;;;;4.43;2.25;;;;;;;26.99;41.26;95383.84;5045655;28;20031;-74
2021/09/02 10:57:51;;;;;;;3.30;2.00;;;;;;;27.01;41.04;95386.81;5043873;28;20033;-74
2021/09/02 11:00:36;;;;;;;3.20;2.08;;;;;;;27.00;41.29;95374.38;5045658;28;20036;-74
2021/09/02 11:03:14;;;;;;;3.70;2.00;;;;;;;27.02;41.04;95388.28;5048159;28;20172;-74
2021/09/02 11:05:43;;;;;;;3.65;2.10;;;;;;;27.05;41.14;95398.19;5065462;28;20402;-74
2021/09/02 11:08:09;;;;;;;3.90;2.08;;;;;;;27.09;40.92;95393.16;5063915;28;20454;-74
2021/09/02 11:10:35;;;;;;;3.92;2.08;;;;;;;27.09;40.80;95382.19;5065066;28;20030;-75
2021/09/02 11:13:04;;;;;;;3.80;1.90;;;;;;;27.09;41.04;95386.94;5062227;28;20053;-74
2021/09/02 11:15:30;;;;;;;2.72;1.92;;;;;;;27.06;41.12;95394.19;5064989;28;20039;-73
2021/09/02 11:18:00;;;;;;;3.58;2.08;;;;;;;27.10;40.84;95386.41;5046507;28;20060;-74
2021/09/02 11:20:28;;;;;;;3.40;2.00;;;;;;;27.07;41.01;95384.72;5050150;28;20067;-75
2021/09/02 11:23:20;;;;;;;3.35;2.03;;;;;;;27.08;40.83;95375.22;5044701;28;20342;-75
2021/09/02 11:25:50;;;;;;;3.13;1.95;;;;;;;27.12;40.75;95378.41;5012173;28;20017;-75
2021/09/02 11:28:18;;;;;;;4.00;2.00;;;;;;;27.13;40.74;95392.84;5025652;28;20017;-76
2021/09/02 11:30:43;;;;;;;3.58;2.20;;;;;;;27.12;40.84;95383.16;5045090;28;20021;-76